Time;durP1;ratioP1;P1;durP2;ratioP2;P2;SDS_P1;SDS_P2;PMS_P1;PMS_P2;Temp;Humidity;BMP_temperature;BMP_pressure;BME280_temperature;BME280_humidity;BME280_pressure;Samples;Min_cycle;Max_cycle;Signal;HPM_P1;HPM_P2
2022/05/23 00:01:35;;;;;;;4.63;4.23;;;15.10;71.00;;;14.11;67.86;97333.69;5067994;28;20561;-69
2022/05/23 00:04:03;;;;;;;5.70;4.20;;;15.10;70.90;;;14.08;67.68;97326.06;5098164;28;20500;-70
2022/05/23 00:06:30;;;;;;;6.10;4.37;;;15.10;71.00;;;14.03;67.51;97328.72;5074119;28;20461;-71
2022/05/23 00:08:58;;;;;;;4.07;3.73;;;15.10;70.60;;;14.09;67.53;97322.25;5078327;28;20459;-72
2022/05/23 00:11:25;;;;;;;4.07;3.77;;;15.10;70.80;;;14.07;67.94;97318.16;5072779;28;20542;-70
2022/05/23 00:13:52;;;;;;;4.50;4.10;;;15.10;71.20;;;14.12;66.59;97315.50;5092505;28;20907;-71
2022/05/23 00:16:24;;;;;;;4.30;3.90;;;15.00;70.20;;;14.19;66.24;97310.69;5078949;28;20545;-70
2022/05/23 00:18:52;;;;;;;6.73;3.73;;;15.10;69.80;;;14.16;65.83;97301.13;5081489;28;20462;-69
2022/05/23 00:21:20;;;;;;;5.17;3.90;;;15.20;69.70;;;14.17;66.26;97301.97;5085828;28;20506;-70
2022/05/23 00:23:47;;;;;;;3.77;3.27;;;15.10;69.70;;;14.13;65.14;97289.97;5087628;28;20466;-70
2022/05/23 00:26:19;;;;;;;3.70;3.40;;;15.20;68.80;;;14.32;64.20;97314.88;5075498;28;20946;-69
2022/05/23 00:28:46;;;;;;;4.47;3.73;;;15.20;68.50;;;14.44;63.46;97312.81;5083899;28;20462;-70
2022/05/23 00:31:13;;;;;;;4.03;3.63;;;15.40;67.80;;;14.43;63.64;97308.44;5078580;28;20459;-69
2022/05/23 00:36:28;;;;;;;4.60;4.20;;;15.40;67.30;;;14.40;63.55;97310.84;5081843;28;20600;-70
2022/05/23 00:38:56;;;;;;;7.47;3.83;;;15.40;67.60;;;14.39;63.81;97329.06;5079748;28;20978;-70
2022/05/23 00:44:21;;;;;;;3.40;3.20;;;15.30;67.50;;;14.34;63.63;97312.72;5082821;28;20473;-69
2022/05/23 00:46:54;;;;;;;4.03;3.60;;;15.30;67.40;;;14.22;63.57;97331.09;5077728;28;20501;-71
2022/05/23 00:49:26;;;;;;;4.50;3.80;;;15.30;67.20;;;13.82;64.18;97298.59;5074747;28;20471;-72
2022/05/23 00:51:54;;;;;;;3.77;3.50;;;15.10;67.40;;;13.99;64.66;97333.00;5074240;28;20450;-70
2022/05/23 00:54:22;;;;;;;3.57;3.27;;;15.00;67.60;;;14.12;64.13;97331.81;5074474;28;20513;-70
2022/05/23 00:56:53;;;;;;;4.30;3.50;;;15.00;67.60;;;13.92;64.27;97335.09;5075292;28;20462;-70
2022/05/23 00:59:27;;;;;;;3.80;3.50;;;14.90;67.60;;;13.82;65.42;97330.38;5076456;28;20535;-70
2022/05/23 01:01:56;;;;;;;7.27;4.03;;;14.80;68.60;;;13.81;65.56;97324.13;5073093;28;20472;-71
2022/05/23 01:04:25;;;;;;;4.30;3.90;;;14.70;68.40;;;13.69;65.16;97307.13;5074319;28;20477;-70
2022/05/23 01:06:53;;;;;;;5.77;3.80;;;14.70;68.50;;;13.84;65.61;97330.94;5074068;28;20489;-70
2022/05/23 01:09:22;;;;;;;3.90;3.60;;;14.80;68.60;;;13.83;65.34;97323.88;5078414;28;20508;-70
2022/05/23 01:11:50;;;;;;;4.53;4.13;;;14.80;68.60;;;13.72;65.72;97317.47;5076247;28;20454;-70
2022/05/23 01:14:17;;;;;;;4.10;3.63;;;14.70;68.40;;;13.70;65.75;97316.91;5074905;28;20447;-71
2022/05/23 01:16:44;;;;;;;4.70;4.30;;;14.70;68.60;;;13.70;66.01;97325.06;5080653;28;20561;-70
2022/05/23 01:19:11;;;;;;;3.83;3.53;;;14.70;68.60;;;13.79;65.57;97317.28;5075003;28;20477;-70
2022/05/23 01:21:50;;;;;;;4.37;4.07;;;14.70;68.70;;;13.78;65.79;97319.19;5075630;28;20555;-70
2022/05/23 01:24:24;;;;;;;5.40;4.90;;;14.80;68.60;;;13.60;66.03;97307.59;5079495;28;20479;-70
2022/05/23 01:26:56;;;;;;;5.00;3.90;;;14.70;68.60;;;13.52;66.25;97297.16;5081161;28;20485;-69
2022/05/23 01:29:23;;;;;;;4.57;4.20;;;14.60;68.70;;;13.47;66.62;97288.97;5079424;28;20516;-69
2022/05/23 01:31:50;;;;;;;4.63;4.23;;;14.50;68.90;;;13.47;66.61;97305.25;5076587;28;20567;-69
2022/05/23 01:34:17;;;;;;;5.10;4.60;;;14.50;69.10;;;13.44;66.62;97284.06;5089022;28;20449;-69
2022/05/23 01:36:45;;;;;;;5.27;4.83;;;14.40;69.00;;;13.27;66.80;97295.75;5078541;28;20462;-69
2022/05/23 01:39:12;;;;;;;4.93;4.00;;;14.40;69.40;;;13.29;66.74;97288.19;5078623;28;20459;-70
2022/05/23 01:41:39;;;;;;;6.03;4.50;;;14.30;69.00;;;13.26;67.10;97285.13;5080480;28;20469;-70
2022/05/23 01:44:08;;;;;;;4.60;4.20;;;14.30;69.30;;;13.27;67.38;97284.06;5074303;28;20467;-69
2022/05/23 01:46:35;;;;;;;4.73;3.70;;;14.30;69.50;;;13.16;67.32;97278.50;5075013;28;20462;-69
2022/05/23 01:49:02;;;;;;;4.40;4.00;;;14.20;69.30;;;13.15;67.67;97268.72;5069537;28;21240;-70
2022/05/23 01:51:29;;;;;;;4.60;4.20;;;14.20;69.60;;;13.07;67.50;97274.59;5083579;28;20503;-69
2022/05/23 01:53:56;;;;;;;5.20;4.20;;;14.10;69.50;;;13.01;67.88;97265.56;5079911;28;20548;-70
2022/05/23 01:56:23;;;;;;;4.90;4.50;;;14.10;69.80;;;12.95;68.19;97263.81;5082964;28;20458;-70
2022/05/23 02:01:38;;;;;;;5.20;4.70;;;14.00;70.10;;;12.82;68.59;97246.03;5089491;28;20510;-70
2022/05/23 02:04:05;;;;;;;5.07;4.57;;;13.90;70.20;;;12.75;68.46;97246.19;5082004;28;20831;-70
2022/05/23 02:06:32;;;;;;;5.13;4.30;;;13.90;70.40;;;12.75;69.18;97254.34;5081079;28;20807;-69
2022/05/23 02:09:00;;;;;;;4.87;4.47;;;13.80;70.60;;;12.89;69.02;97257.53;5076302;28;20469;-69
2022/05/23 02:11:27;;;;;;;4.63;4.23;;;13.90;71.00;;;12.77;68.81;97247.84;5075689;28;20497;-69
2022/05/23 02:13:54;;;;;;;5.03;4.70;;;13.80;70.80;;;12.71;68.96;97231.50;5087026;28;20450;-69
2022/05/23 02:16:22;;;;;;;4.67;4.00;;;13.80;70.90;;;12.70;69.24;97227.16;5083773;28;20461;-70
2022/05/23 02:18:51;;;;;;;4.90;4.50;;;13.80;71.00;;;12.70;69.13;97232.59;5086326;28;20461;-70
2022/05/23 02:21:18;;;;;;;6.17;4.70;;;13.80;71.10;;;12.69;69.22;97235.53;5088808;28;21086;-69
2022/05/23 02:23:45;;;;;;;5.00;4.60;;;13.70;71.00;;;12.72;69.13;97238.56;5089127;28;20488;-69
2022/05/23 02:26:12;;;;;;;5.83;4.67;;;13.80;71.20;;;12.76;68.92;97238.91;5085034;28;20558;-69
2022/05/23 02:28:40;;;;;;;5.33;4.77;;;13.80;71.30;;;12.89;68.58;97249.41;5085277;28;20464;-69
2022/05/23 02:31:07;;;;;;;4.50;4.10;;;13.80;71.00;;;12.82;68.81;97237.91;5089461;28;20718;-69
2022/05/23 02:33:35;;;;;;;4.70;4.37;;;13.80;71.20;;;12.86;68.78;97241.75;5075910;28;20460;-69
2022/05/23 02:36:04;;;;;;;7.53;5.17;;;13.90;71.20;;;12.77;68.88;97234.28;5074405;28;21147;-69
2022/05/23 02:38:31;;;;;;;5.53;4.83;;;13.90;71.10;;;12.83;68.96;97241.44;5073128;28;21007;-70
2022/05/23 02:40:58;;;;;;;5.30;4.80;;;13.90;71.20;;;12.63;68.74;97206.72;5081772;28;20473;-70
2022/05/23 02:43:27;;;;;;;5.10;4.53;;;13.90;71.20;;;12.88;68.74;97244.22;5072730;28;20452;-71
2022/05/23 02:45:54;;;;;;;5.57;5.07;;;13.90;71.60;;;12.89;68.80;97243.16;5076228;28;20481;-70
2022/05/23 02:48:21;;;;;;;5.40;4.90;;;13.90;71.40;;;12.78;69.07;97233.22;5093900;28;20480;-70
2022/05/23 02:50:49;;;;;;;5.13;4.73;;;13.80;71.40;;;12.82;69.05;97229.75;5076112;28;20461;-69
2022/05/23 02:53:17;;;;;;;5.47;4.97;;;13.80;71.50;;;12.69;69.09;97222.81;5072511;28;20523;-69
2022/05/23 02:55:44;;;;;;;5.33;4.93;;;13.70;71.40;;;12.59;69.39;97212.66;5071573;28;20466;-69
2022/05/23 02:58:12;;;;;;;5.00;4.43;;;13.70;71.60;;;12.53;69.78;97204.69;5082706;28;20460;-70
2022/05/23 03:00:40;;;;;;;5.97;4.90;;;13.60;71.80;;;12.54;70.03;97209.03;5077045;28;20453;-69
2022/05/23 03:03:09;;;;;;;7.63;5.50;;;13.60;72.00;;;12.47;70.00;97199.19;5071492;28;20722;-70
2022/05/23 03:05:40;;;;;;;7.83;4.90;;;13.60;72.00;;;12.51;70.57;97204.09;5072364;28;20548;-70
2022/05/23 03:08:08;;;;;;;5.10;4.80;;;13.60;72.30;;;12.49;69.95;97200.81;5077554;28;20523;-70
2022/05/23 03:10:37;;;;;;;5.47;4.90;;;13.60;72.30;;;12.49;70.26;97203.53;5073124;28;20444;-70
2022/05/23 03:13:05;;;;;;;5.67;5.07;;;13.60;72.30;;;12.46;70.06;97213.78;5077024;28;20511;-70
2022/05/23 03:15:33;;;;;;;5.87;5.47;;;13.50;72.00;;;12.49;70.45;97214.34;5104233;28;21209;-70
2022/05/23 03:18:00;;;;;;;4.90;4.37;;;13.50;72.30;;;12.53;69.85;97213.63;5088324;28;20466;-69
2022/05/23 03:20:28;;;;;;;7.23;4.57;;;13.60;72.30;;;12.52;70.15;97211.19;5080405;28;20461;-69
2022/05/23 03:28:26;;;;;;;5.27;4.83;;;13.50;72.30;;;12.33;70.54;97201.41;5079616;28;20445;-69
2022/05/23 03:30:53;;;;;;;5.47;5.00;;;13.50;72.50;;;12.36;70.51;97191.97;5074372;28;20465;-68
2022/05/23 03:33:21;;;;;;;5.40;5.00;;;13.50;72.50;;;12.35;70.61;97200.34;5079019;28;20505;-70
2022/05/23 03:35:48;;;;;;;7.33;5.87;;;13.50;72.70;;;12.40;70.26;97189.56;5077433;28;20461;-69
2022/05/23 03:38:16;;;;;;;5.43;4.90;;;13.40;72.60;;;12.37;70.17;97193.63;5074764;28;20453;-69
2022/05/23 03:40:45;;;;;;;5.83;5.13;;;13.50;72.60;;;12.37;70.52;97190.09;5075250;28;20464;-70
2022/05/23 03:43:14;;;;;;;5.40;5.00;;;13.50;72.70;;;12.42;70.45;97187.44;5072995;28;20545;-70
2022/05/23 03:45:41;;;;;;;5.77;5.10;;;13.50;72.90;;;12.55;70.01;97184.38;5070558;28;20570;-71
2022/05/23 03:48:09;;;;;;;5.77;5.23;;;13.60;72.80;;;12.43;70.26;97178.25;5079954;28;20471;-70
2022/05/23 03:50:37;;;;;;;6.20;5.60;;;13.50;72.60;;;12.40;69.91;97179.56;5071692;28;20509;-70
2022/05/23 03:53:06;;;;;;;5.53;5.03;;;13.50;72.60;;;12.50;70.02;97183.50;5076909;28;20448;-69
2022/05/23 03:55:33;;;;;;;5.20;4.80;;;13.50;72.80;;;12.51;69.83;97175.13;5076515;28;20476;-70
2022/05/23 03:58:02;;;;;;;5.63;5.20;;;13.60;72.60;;;12.49;69.72;97171.00;5075237;28;21203;-69
2022/05/23 04:00:29;;;;;;;5.30;4.87;;;13.50;72.60;;;12.56;69.67;97163.53;5073741;28;21069;-70
2022/05/23 04:02:56;;;;;;;5.53;5.03;;;13.60;72.80;;;12.53;69.58;97166.75;5071062;28;20544;-69
2022/05/23 04:05:23;;;;;;;5.27;4.87;;;13.60;72.50;;;12.47;69.98;97169.38;5073796;28;20476;-70
2022/05/23 04:07:50;;;;;;;6.60;5.23;;;13.60;72.50;;;12.41;69.84;97174.97;5075442;28;20459;-69
2022/05/23 04:10:19;;;;;;;6.90;4.87;;;13.50;72.60;;;12.47;69.89;97150.41;5090956;28;22417;-70
2022/05/23 04:12:47;;;;;;;6.00;5.40;;;13.50;72.60;;;12.51;69.98;97145.31;5076410;28;20460;-70
2022/05/23 04:15:17;;;;;;;6.07;5.67;;;13.60;72.70;;;12.49;70.08;97149.34;5073228;28;20543;-70
2022/05/23 04:17:44;;;;;;;6.20;5.17;;;13.50;72.50;;;12.43;69.91;97146.56;5081473;28;21171;-71
2022/05/23 04:20:13;;;;;;;5.47;4.97;;;13.50;72.40;;;12.41;70.55;97142.47;5083612;28;21202;-71
2022/05/23 04:22:40;;;;;;;5.93;5.53;;;13.50;72.70;;;12.46;70.14;97129.81;5076701;28;20967;-72
2022/05/23 04:25:08;;;;;;;5.87;5.03;;;13.50;72.70;;;12.45;69.12;97122.75;5072914;28;20461;-70
2022/05/23 04:27:36;;;;;;;6.40;5.20;;;13.60;72.50;;;12.52;69.36;97116.34;5074868;28;20555;-70
2022/05/23 04:30:04;;;;;;;6.17;5.67;;;13.60;72.50;;;12.55;69.11;97126.69;5070859;28;20869;-70
2022/05/23 04:35:21;;;;;;;6.47;5.87;;;13.60;72.40;;;12.61;69.76;97126.50;5069207;28;20475;-71
2022/05/23 04:37:51;;;;;;;6.07;5.43;;;13.70;72.60;;;12.64;69.55;97125.16;5076840;28;20457;-71
2022/05/23 04:40:23;;;;;;;5.30;4.80;;;13.70;72.30;;;12.98;68.23;97135.09;5091715;28;20465;-76
2022/05/23 04:42:50;;;;;;;5.90;5.43;;;14.00;72.20;;;13.62;66.96;97133.63;5087888;28;20461;-80
2022/05/23 04:45:19;;;;;;;5.77;4.77;;;14.30;72.60;;;13.54;66.53;97132.19;5080336;28;20572;-81
2022/05/23 04:50:32;;;;;;;6.10;4.73;;;14.60;70.70;;;13.60;66.47;97136.63;5077881;28;20461;-74
2022/05/23 04:53:01;;;;;;;6.03;5.20;;;14.60;71.10;;;13.55;66.19;97133.81;5074701;28;20463;-82
2022/05/23 04:55:29;;;;;;;9.63;5.80;;;14.60;70.80;;;13.49;66.51;97124.00;5083698;28;20471;-81
2022/05/23 04:57:59;;;;;;;6.17;5.33;;;14.50;70.80;;;13.42;65.88;97096.22;5078442;28;20453;-78
2022/05/23 05:00:29;;;;;;;6.07;4.87;;;14.60;70.20;;;13.74;65.42;97125.34;5087571;28;21064;-69
2022/05/23 05:02:59;;;;;;;8.90;5.00;;;14.80;70.30;;;13.65;65.84;97127.72;5089494;28;20469;-68
2022/05/23 05:05:28;;;;;;;5.50;5.10;;;14.70;70.40;;;13.68;65.68;97120.91;5070622;28;20477;-70
2022/05/23 05:07:56;;;;;;;6.30;5.73;;;14.70;70.10;;;13.58;66.00;97108.91;5068702;28;20466;-70
2022/05/23 05:10:24;;;;;;;5.20;4.80;;;14.60;70.40;;;13.63;65.94;97108.13;5075747;28;20569;-70
2022/05/23 05:12:51;;;;;;;5.80;5.30;;;14.60;70.20;;;13.56;66.15;97116.47;5096160;28;20604;-73
2022/05/23 05:15:19;;;;;;;6.63;5.17;;;14.60;70.10;;;13.70;65.85;97125.03;5077700;28;20548;-71
2022/05/23 05:17:46;;;;;;;5.20;4.70;;;14.70;70.10;;;14.01;64.54;97119.84;5076503;28;20554;-70
2022/05/23 05:20:18;;;;;;;6.37;4.93;;;15.00;69.60;;;14.39;64.16;97125.28;5079752;28;20483;-73
2022/05/23 05:22:45;;;;;;;8.40;4.77;;;15.30;69.40;;;14.93;62.30;97133.47;5078109;28;20456;-70
2022/05/23 05:25:14;;;;;;;6.97;6.17;;;15.80;68.50;;;15.25;60.98;97129.78;5079634;28;20451;-73
2022/05/23 05:27:41;;;;;;;6.67;5.00;;;16.30;67.30;;;16.15;60.44;97130.47;5076631;28;20549;-71
2022/05/23 05:30:13;;;;;;;6.17;5.20;;;17.10;67.70;;;17.61;54.22;97141.72;5069924;28;20451;-71
2022/05/23 05:32:43;;;;;;;4.90;4.50;;;18.40;65.00;;;17.92;53.27;97133.31;5074832;28;21116;-72
2022/05/23 05:35:20;;;;;;;4.60;4.20;;;19.00;63.40;;;17.84;52.96;97140.19;5088405;28;20571;-76
2022/05/23 05:37:53;;;;;;;4.90;4.40;;;19.00;61.20;;;18.14;52.69;97143.03;5075296;28;21048;-76
2022/05/23 05:40:25;;;;;;;5.90;5.07;;;19.10;61.10;;;18.30;51.67;97158.19;5077633;28;20462;-74
2022/05/23 05:42:57;;;;;;;4.70;4.20;;;19.60;59.50;;;17.38;53.47;97166.69;5074402;28;20479;-67
2022/05/23 05:45:30;;;;;;;7.00;5.00;;;19.10;59.20;;;17.74;52.88;97168.41;5072511;28;20982;-72
2022/05/23 05:47:58;;;;;;;4.80;4.30;;;19.00;59.40;;;16.99;54.44;97176.41;5073197;28;20458;-72
2022/05/23 05:50:31;;;;;;;6.37;4.67;;;18.50;59.50;;;16.46;56.21;97167.78;5073678;28;20457;-71
2022/05/23 05:53:03;;;;;;;4.90;4.50;;;17.90;60.30;;;16.75;55.54;97184.34;5089266;28;21884;-71
2022/05/23 05:55:31;;;;;;;4.80;4.40;;;17.80;61.20;;;16.84;55.70;97192.78;5072252;28;20950;-70
2022/05/23 05:57:59;;;;;;;6.70;4.60;;;17.80;61.10;;;16.81;55.89;97185.97;5072414;28;20509;-71
2022/05/23 06:00:26;;;;;;;4.87;4.27;;;17.80;61.30;;;16.89;55.02;97191.97;5070407;28;20555;-70
2022/05/23 06:02:54;;;;;;;6.77;4.70;;;17.90;61.00;;;16.91;55.46;97201.50;5074215;28;20466;-78
2022/05/23 06:05:21;;;;;;;4.17;3.83;;;17.80;61.10;;;16.51;56.38;97184.13;5071382;28;20440;-70
2022/05/23 06:13:20;;;;;;;9.10;4.77;;;17.20;62.10;;;16.64;57.72;97259.09;5083935;28;20946;-73
2022/05/23 06:15:49;;;;;;;8.30;4.87;;;17.30;63.40;;;16.60;56.42;97288.81;5084269;28;20462;-71
2022/05/23 06:18:16;;;;;;;5.30;4.80;;;17.40;62.40;;;16.06;57.65;97284.66;5077837;28;20554;-73
2022/05/23 06:20:44;;;;;;;8.83;4.43;;;17.30;62.80;;;16.33;59.11;97349.88;5082242;28;20508;-71
2022/05/23 06:23:12;;;;;;;5.37;4.87;;;17.20;63.80;;;16.32;58.64;97347.41;5083149;28;20984;-73
2022/05/23 06:25:39;;;;;;;5.30;4.17;;;17.20;63.80;;;16.37;57.83;97359.13;5069844;28;20477;-70
2022/05/23 06:28:07;;;;;;;6.50;5.80;;;17.30;62.90;;;16.60;57.36;97351.53;5086036;28;20505;-71
2022/05/23 06:30:34;;;;;;;6.13;5.03;;;17.40;62.90;;;16.73;57.42;97341.16;5083190;28;20534;-68
2022/05/23 06:33:02;;;;;;;7.03;4.67;;;17.60;63.10;;;16.84;57.08;97331.91;5080924;28;20519;-73
2022/05/23 06:35:29;;;;;;;9.53;4.30;;;17.60;62.80;;;16.86;57.43;97324.25;5083234;28;20547;-72
2022/05/23 06:37:56;;;;;;;4.87;4.37;;;17.70;63.10;;;16.77;57.86;97336.84;5076472;28;20502;-73
2022/05/23 06:40:24;;;;;;;4.70;3.93;;;17.70;63.10;;;16.93;57.28;97322.09;5077832;28;20558;-71
2022/05/23 06:42:51;;;;;;;5.07;4.67;;;17.70;63.10;;;16.82;57.28;97312.28;5073046;28;20455;-70
2022/05/23 06:45:19;;;;;;;6.80;4.10;;;17.80;63.10;;;16.75;57.78;97300.81;5077380;28;21168;-73
2022/05/23 06:47:46;;;;;;;5.87;4.63;;;17.70;63.00;;;16.93;56.86;97286.63;5079237;28;20479;-72
2022/05/23 06:50:15;;;;;;;5.93;4.93;;;17.70;63.00;;;16.89;57.13;97290.19;5085278;28;20469;-74
2022/05/23 06:52:42;;;;;;;5.97;4.43;;;17.70;62.80;;;16.99;56.71;97295.66;5078946;28;20473;-72
2022/05/23 06:55:10;;;;;;;5.90;4.57;;;17.80;62.60;;;16.64;57.51;97300.81;5076984;28;20543;-71
2022/05/23 06:57:39;;;;;;;6.90;4.90;;;17.60;62.70;;;16.61;57.66;97285.00;5077216;28;20547;-70
2022/05/23 07:00:09;;;;;;;5.40;4.90;;;17.60;62.90;;;16.61;58.25;97295.91;5082456;28;20447;-71
2022/05/23 07:02:36;;;;;;;8.50;4.60;;;17.50;63.30;;;16.58;58.63;97291.00;5074250;28;20468;-74
2022/05/23 07:13:19;;;;;;;5.60;4.30;;;17.40;65.10;;;16.32;61.80;97262.91;5075437;28;20566;-77
2022/05/23 07:15:48;;;;;;;5.80;4.13;;;17.20;66.40;;;16.08;63.45;97255.25;5069425;28;20957;-71
2022/05/23 07:18:16;;;;;;;6.47;4.83;;;17.10;67.40;;;16.16;63.65;97240.28;5092440;27;21284;-71
2022/05/23 07:20:43;;;;;;;8.40;5.80;;;17.00;68.00;;;15.94;67.01;97222.25;5079336;28;20584;-72
2022/05/23 07:23:11;;;;;;;7.20;5.07;;;16.90;70.40;;;15.97;67.15;97221.72;5082474;28;20466;-74
2022/05/23 07:25:39;;;;;;;6.33;5.30;;;16.90;71.60;;;15.84;68.04;97245.63;5089099;28;20458;-79
2022/05/23 07:28:07;;;;;;;7.50;5.53;;;16.80;72.70;;;15.97;68.40;97246.22;5082419;28;20547;-69
2022/05/23 07:30:35;;;;;;;5.87;5.17;;;16.80;73.30;;;15.76;68.82;97221.66;5080193;28;20476;-80
2022/05/23 07:33:03;;;;;;;11.03;5.90;;;16.70;74.20;;;15.33;70.79;97193.75;5079464;28;21002;-71
2022/05/23 07:35:30;;;;;;;8.37;6.80;;;16.40;75.10;;;15.18;72.55;97168.13;5082652;28;20547;-69
2022/05/23 07:37:57;;;;;;;11.03;6.70;;;16.20;77.00;;;14.83;73.50;97145.13;5082161;28;20502;-73
2022/05/23 07:40:24;;;;;;;9.60;6.53;;;15.90;77.40;;;14.67;75.32;97122.44;5084738;28;20465;-68
2022/05/23 07:42:53;;;;;;;8.13;6.43;;;15.70;80.00;;;14.49;76.64;97124.53;5082338;28;20456;-69
2022/05/23 07:45:20;;;;;;;9.77;6.80;;;15.50;81.20;;;14.45;77.79;97090.81;5075616;28;20891;-69
2022/05/23 07:47:49;;;;;;;7.87;6.43;;;15.50;82.90;;;14.26;77.61;97071.41;5092190;28;20558;-77
2022/05/23 07:50:17;;;;;;;8.03;7.17;;;15.30;83.10;;;14.13;79.37;97062.63;5084386;28;20458;-73
2022/05/23 08:00:30;;;;;;;7.70;7.00;;;15.20;84.70;;;14.40;78.35;97058.97;5083856;28;20558;-77
2022/05/23 08:01:05;;;;;;;6.23;5.63;;;16.00;86.10;;;15.75;74.28;97004.91;5046071;28;20467;-71
2022/05/23 08:03:34;;;;;;;8.40;6.60;;;16.50;83.40;;;16.21;73.41;97003.19;5076091;28;20498;-76
2022/05/23 08:06:05;;;;;;;6.47;5.83;;;16.90;83.00;;;16.41;72.07;96997.69;5073709;28;20451;-75
2022/05/23 08:08:32;;;;;;;7.10;5.47;;;17.30;81.80;;;16.53;69.76;96993.81;5076996;28;20454;-71
2022/05/23 08:11:01;;;;;;;6.63;5.63;;;17.50;80.10;;;17.06;70.13;96976.09;5083001;28;21440;-75
2022/05/23 08:13:28;;;;;;;6.03;5.53;;;17.80;80.80;;;17.32;67.70;96986.84;5083107;28;20494;-76
2022/05/23 08:15:55;;;;;;;5.63;5.10;;;18.10;78.60;;;17.59;66.67;96980.06;5079025;28;20527;-72
2022/05/23 08:18:22;;;;;;;6.57;5.10;;;18.30;78.20;;;17.39;66.97;96957.31;5075536;28;20599;-73
2022/05/23 08:20:51;;;;;;;5.83;5.33;;;18.40;77.90;;;17.40;66.34;96939.84;5083023;28;20769;-75
2022/05/23 08:23:18;;;;;;;7.37;5.53;;;18.50;77.40;;;17.49;68.09;96946.28;5078210;28;20509;-75
2022/05/23 08:25:46;;;;;;;6.60;5.97;;;18.50;78.30;;;17.43;67.61;96936.53;5079093;28;20529;-75
2022/05/23 08:28:13;;;;;;;6.03;5.50;;;18.40;77.80;;;18.11;65.88;96937.50;5074027;28;20546;-76
2022/05/23 08:30:41;;;;;;;7.80;4.80;;;18.80;77.90;;;18.24;65.63;96924.22;5090915;28;20456;-78
2022/05/23 08:33:08;;;;;;;5.97;5.43;;;19.10;77.40;;;17.96;66.40;96930.25;5070325;28;20489;-72
2022/05/23 08:35:35;;;;;;;5.63;5.10;;;19.00;77.20;;;17.96;65.66;96934.91;5087185;28;20471;-71
2022/05/23 08:38:04;;;;;;;5.57;4.80;;;19.10;76.50;;;18.49;64.99;96930.50;5077428;28;20533;-71
2022/05/23 08:40:46;;;;;;;5.17;4.67;;;19.20;77.00;;;18.59;66.46;96933.09;5080197;28;20457;-76
2022/05/23 08:43:26;;;;;;;5.40;4.70;;;19.60;77.50;;;18.88;62.97;96929.41;5077742;28;20447;-74
2022/05/23 08:45:57;;;;;;;7.40;4.87;;;19.70;76.00;;;18.74;62.28;96947.66;5078260;28;21428;-76
2022/05/23 08:48:31;;;;;;;7.30;4.57;;;19.50;74.70;;;19.34;60.74;96935.31;5073200;28;20836;-72
2022/05/23 08:51:06;;;;;;;6.60;4.80;;;19.90;74.40;;;19.58;59.46;96940.66;5087465;28;21514;-73
2022/05/23 08:53:43;;;;;;;5.63;4.73;;;20.10;73.10;;;19.64;59.55;96944.91;5082727;28;20540;-74
2022/05/23 08:56:18;;;;;;;5.00;4.60;;;20.40;73.00;;;19.57;59.95;96924.50;5077319;28;20446;-74
2022/05/23 08:58:52;;;;;;;6.40;4.80;;;20.50;72.70;;;19.96;58.99;96932.31;5083272;28;20994;-74
2022/05/23 09:01:22;;;;;;;4.77;4.10;;;20.60;72.10;;;20.10;57.69;96921.34;5094061;27;20466;-74
2022/05/23 09:03:56;;;;;;;6.10;4.20;;;20.90;70.60;;;20.24;57.11;96920.50;5088947;28;20480;-71
2022/05/23 09:06:29;;;;;;;6.13;4.03;;;21.00;70.00;;;20.20;57.05;96931.31;5086983;28;20455;-75
2022/05/23 09:09:02;;;;;;;5.10;4.60;;;21.10;69.70;;;19.90;57.39;96924.44;5070345;28;20494;-74
2022/05/23 09:11:34;;;;;;;4.73;4.20;;;20.80;68.90;;;19.95;57.11;96916.97;5075236;28;20498;-73
2022/05/23 09:14:04;;;;;;;5.17;3.90;;;20.70;68.90;;;20.40;56.11;96918.28;5074070;28;20510;-74
2022/05/23 09:16:40;;;;;;;4.40;4.00;;;20.90;68.70;;;19.94;55.97;96906.31;5081268;28;20490;-71
2022/05/23 09:19:21;;;;;;;4.57;3.90;;;20.80;67.70;;;19.96;55.90;96906.84;5081522;28;20454;-70
2022/05/23 09:24:42;;;;;;;4.27;3.87;;;21.20;67.50;;;20.65;53.69;96900.44;5078028;28;20452;-70
2022/05/23 09:27:18;;;;;;;5.17;3.77;;;21.40;66.00;;;21.21;52.46;96888.47;5078108;28;20546;-71
2022/05/23 09:29:52;;;;;;;7.73;3.90;;;21.80;65.80;;;21.36;51.95;96881.81;5075930;28;20460;-72
2022/05/23 09:32:23;;;;;;;7.33;4.03;;;22.00;64.80;;;21.33;51.27;96882.44;5073093;28;20456;-74
2022/05/23 09:34:55;;;;;;;6.10;3.53;;;22.00;63.90;;;21.16;51.21;96892.19;5082709;28;20467;-73
2022/05/23 09:37:24;;;;;;;3.60;3.30;;;22.10;63.00;;;21.70;49.72;96880.38;5070518;28;20464;-72
2022/05/23 09:39:58;;;;;;;3.43;3.10;;;22.30;62.60;;;21.64;49.21;96898.91;5076023;28;20550;-71
2022/05/23 09:48:15;;;;;;;4.33;3.00;;;23.10;59.90;;;23.02;46.15;96885.38;5079812;28;20468;-72
2022/05/23 09:50:44;;;;;;;9.33;3.30;;;23.50;59.40;;;22.88;46.25;96891.88;5081569;28;20837;-72
2022/05/23 09:53:19;;;;;;;5.30;3.20;;;23.70;59.10;;;22.25;47.55;96883.81;5076157;28;22221;-76
2022/05/23 09:55:49;;;;;;;3.53;3.17;;;23.20;58.80;;;22.38;47.53;96884.03;5072614;28;20836;-71
2022/05/23 09:58:28;;;;;;;3.70;3.03;;;23.10;59.40;;;23.21;46.20;96871.28;5074016;28;20451;-74
2022/05/23 10:01:07;;;;;;;4.03;2.83;;;23.60;59.30;;;23.46;45.13;96880.66;5078647;28;20462;-76
2022/05/23 10:03:37;;;;;;;3.30;2.97;;;24.00;58.40;;;22.82;45.60;96881.34;5080984;28;20886;-75
2022/05/23 10:06:11;;;;;;;5.60;2.67;;;23.80;57.40;;;22.88;45.92;96894.63;5070593;28;20463;-73
2022/05/23 10:08:41;;;;;;;4.00;3.13;;;23.50;57.70;;;22.49;46.62;96896.34;5075018;28;20505;-72
2022/05/23 10:11:23;;;;;;;2.87;2.57;;;23.30;57.70;;;22.51;46.71;96891.34;5078454;28;20480;-80
2022/05/23 10:13:54;;;;;;;3.63;3.00;;;23.30;57.90;;;22.68;46.54;96890.56;5076225;28;20453;-76
2022/05/23 10:16:27;;;;;;;3.10;2.90;;;23.30;58.00;;;22.78;46.33;96883.91;5075051;28;20523;-73
2022/05/23 10:19:00;;;;;;;6.43;3.00;;;23.40;57.80;;;22.74;46.56;96894.75;5080575;28;20464;-71
2022/05/23 10:21:32;;;;;;;5.30;3.00;;;23.40;58.00;;;22.95;46.09;96885.88;5078755;28;20470;-73
2022/05/23 10:24:05;;;;;;;5.03;3.27;;;23.60;57.90;;;22.48;47.24;96880.97;5076598;28;20795;-78
2022/05/23 10:26:41;;;;;;;4.63;3.20;;;23.40;57.90;;;22.61;47.25;96873.72;5082346;28;20459;-74
2022/05/23 10:29:16;;;;;;;3.93;3.10;;;23.30;58.10;;;22.81;47.54;96880.50;5078542;28;20452;-75
2022/05/23 10:31:48;;;;;;;5.30;2.77;;;23.30;58.30;;;23.35;45.81;96879.38;5076263;28;20484;-71
2022/05/23 10:34:38;;;;;;;4.37;3.47;;;23.90;58.00;;;22.59;46.72;96832.75;5071476;28;20946;-73
2022/05/23 10:37:11;;;;;;;3.03;2.77;;;23.60;57.60;;;22.68;47.28;96876.00;5074791;28;20457;-74
2022/05/23 10:42:40;;;;;;;4.43;3.57;;;23.50;58.10;;;22.27;48.32;96881.56;5096018;28;20459;-72
2022/05/23 10:45:24;;;;;;;3.77;3.10;;;23.20;58.30;;;22.28;48.78;96882.34;5082569;28;20843;-75
2022/05/23 10:48:10;;;;;;;5.30;3.40;;;23.00;58.90;;;22.34;47.99;96887.38;5067849;28;20494;-75
2022/05/23 10:50:48;;;;;;;3.43;2.90;;;23.10;58.40;;;22.26;48.17;96879.94;5081029;28;20541;-71
2022/05/23 10:53:28;;;;;;;3.57;2.83;;;23.00;58.20;;;21.72;48.60;96871.84;5079975;28;20641;-73
2022/05/23 10:56:06;;;;;;;3.30;3.10;;;22.70;57.90;;;21.77;49.07;96878.00;5078454;28;20477;-70
2022/05/23 10:58:40;;;;;;;3.77;3.37;;;22.60;58.50;;;21.90;48.84;96881.78;5092877;27;20452;-74
2022/05/23 11:01:23;;;;;;;3.73;3.43;;;22.70;58.50;;;22.10;48.65;96882.31;5078252;28;20473;-76
2022/05/23 11:03:56;;;;;;;5.73;3.30;;;22.80;58.70;;;22.17;48.63;96871.66;5083336;28;20452;-74
2022/05/23 11:06:38;;;;;;;3.60;2.60;;;22.90;58.80;;;22.27;47.44;96876.06;5080080;28;20461;-75
2022/05/23 11:09:24;;;;;;;4.73;2.80;;;22.90;57.70;;;22.20;47.95;96881.19;5080908;28;20483;-74
2022/05/23 11:12:13;;;;;;;3.10;2.60;;;23.00;58.10;;;22.32;46.86;96859.41;5080241;28;20456;-77
2022/05/23 11:14:57;;;;;;;2.60;2.40;;;23.10;57.70;;;22.38;46.61;96873.00;5077304;28;20462;-74
2022/05/23 11:17:33;;;;;;;5.00;2.87;;;23.10;57.10;;;22.52;46.33;96878.41;5090784;28;20550;-71
2022/05/23 11:20:12;;;;;;;2.83;2.63;;;23.20;56.70;;;22.53;46.08;96867.09;5074869;28;20490;-75
2022/05/23 11:22:44;;;;;;;3.03;2.67;;;23.20;56.90;;;22.70;45.77;96865.47;5080697;28;21356;-73